sensor_id;sensor_type;location;lat;lon;timestamp;temperature;humidity
74153;DHT22;62505;46.070;14.492;2022-10-16T00:00:37;22.50;89.30
74153;DHT22;62505;46.070;14.492;2022-10-16T00:03:05;22.50;89.30
74153;DHT22;62505;46.070;14.492;2022-10-16T00:05:32;22.50;89.30
74153;DHT22;62505;46.070;14.492;2022-10-16T00:07:59;22.50;89.30
74153;DHT22;62505;46.070;14.492;2022-10-16T00:10:29;22.50;89.20
74153;DHT22;62505;46.070;14.492;2022-10-16T00:12:56;22.40;89.20
74153;DHT22;62505;46.070;14.492;2022-10-16T00:15:23;22.50;89.20
74153;DHT22;62505;46.070;14.492;2022-10-16T00:17:50;22.40;89.20
74153;DHT22;62505;46.070;14.492;2022-10-16T00:20:17;22.50;89.20
74153;DHT22;62505;46.070;14.492;2022-10-16T00:22:44;22.40;89.20
74153;DHT22;62505;46.070;14.492;2022-10-16T00:25:10;22.40;89.20
74153;DHT22;62505;46.070;14.492;2022-10-16T00:27:39;22.40;90.00
74153;DHT22;62505;46.070;14.492;2022-10-16T00:30:07;22.40;89.20
74153;DHT22;62505;46.070;14.492;2022-10-16T00:32:34;22.40;89.10
74153;DHT22;62505;46.070;14.492;2022-10-16T00:35:01;22.40;89.10
74153;DHT22;62505;46.070;14.492;2022-10-16T00:37:29;22.40;89.20
74153;DHT22;62505;46.070;14.492;2022-10-16T00:39:56;22.40;89.20
74153;DHT22;62505;46.070;14.492;2022-10-16T00:42:23;22.40;89.20
74153;DHT22;62505;46.070;14.492;2022-10-16T00:44:53;22.40;89.20
74153;DHT22;62505;46.070;14.492;2022-10-16T00:47:24;22.50;89.20
74153;DHT22;62505;46.070;14.492;2022-10-16T00:49:55;22.40;89.20
74153;DHT22;62505;46.070;14.492;2022-10-16T00:52:22;22.40;89.10
74153;DHT22;62505;46.070;14.492;2022-10-16T00:54:50;22.40;89.10
74153;DHT22;62505;46.070;14.492;2022-10-16T00:57:19;22.40;89.10
74153;DHT22;62505;46.070;14.492;2022-10-16T00:59:46;22.40;89.10
74153;DHT22;62505;46.070;14.492;2022-10-16T01:02:15;22.40;89.90
74153;DHT22;62505;46.070;14.492;2022-10-16T01:04:44;22.40;89.10
74153;DHT22;62505;46.070;14.492;2022-10-16T01:07:16;22.40;89.10
74153;DHT22;62505;46.070;14.492;2022-10-16T01:09:57;22.40;89.20
74153;DHT22;62505;46.070;14.492;2022-10-16T01:12:33;22.40;89.10
74153;DHT22;62505;46.070;14.492;2022-10-16T01:15:08;22.40;89.10
74153;DHT22;62505;46.070;14.492;2022-10-16T01:17:43;22.40;89.10
74153;DHT22;62505;46.070;14.492;2022-10-16T01:20:17;22.40;89.10
74153;DHT22;62505;46.070;14.492;2022-10-16T01:22:59;22.40;89.10
74153;DHT22;62505;46.070;14.492;2022-10-16T01:25:36;22.40;89.10
74153;DHT22;62505;46.070;14.492;2022-10-16T01:28:09;22.40;89.10
74153;DHT22;62505;46.070;14.492;2022-10-16T01:30:40;22.40;89.10
74153;DHT22;62505;46.070;14.492;2022-10-16T01:33:14;22.40;89.10
74153;DHT22;62505;46.070;14.492;2022-10-16T01:35:44;22.40;89.10
74153;DHT22;62505;46.070;14.492;2022-10-16T01:38:16;22.40;89.10
74153;DHT22;62505;46.070;14.492;2022-10-16T01:40:46;22.40;89.10
74153;DHT22;62505;46.070;14.492;2022-10-16T01:43:18;22.40;89.80
74153;DHT22;62505;46.070;14.492;2022-10-16T01:45:46;22.40;89.10
74153;DHT22;62505;46.070;14.492;2022-10-16T01:48:17;22.40;89.10
74153;DHT22;62505;46.070;14.492;2022-10-16T01:50:52;22.40;89.10
74153;DHT22;62505;46.070;14.492;2022-10-16T01:53:22;22.40;89.10
74153;DHT22;62505;46.070;14.492;2022-10-16T01:55:52;22.40;89.10
74153;DHT22;62505;46.070;14.492;2022-10-16T01:58:23;22.40;89.10
74153;DHT22;62505;46.070;14.492;2022-10-16T02:00:52;22.40;89.10
74153;DHT22;62505;46.070;14.492;2022-10-16T02:03:21;22.40;89.10
74153;DHT22;62505;46.070;14.492;2022-10-16T02:05:51;22.40;89.10
74153;DHT22;62505;46.070;14.492;2022-10-16T02:08:19;22.40;89.80
74153;DHT22;62505;46.070;14.492;2022-10-16T02:10:47;22.40;89.00
74153;DHT22;62505;46.070;14.492;2022-10-16T02:13:17;22.40;89.00
74153;DHT22;62505;46.070;14.492;2022-10-16T02:15:48;22.40;89.10
74153;DHT22;62505;46.070;14.492;2022-10-16T02:18:15;22.40;89.00
74153;DHT22;62505;46.070;14.492;2022-10-16T02:20:46;22.40;89.00
74153;DHT22;62505;46.070;14.492;2022-10-16T02:23:27;22.40;89.00
74153;DHT22;62505;46.070;14.492;2022-10-16T02:25:58;22.40;89.10
74153;DHT22;62505;46.070;14.492;2022-10-16T02:28:29;22.40;89.00
74153;DHT22;62505;46.070;14.492;2022-10-16T02:31:02;22.40;89.00
74153;DHT22;62505;46.070;14.492;2022-10-16T02:33:30;22.40;89.00
74153;DHT22;62505;46.070;14.492;2022-10-16T02:35:59;22.40;89.00
74153;DHT22;62505;46.070;14.492;2022-10-16T02:38:26;22.40;89.00
74153;DHT22;62505;46.070;14.492;2022-10-16T02:40:58;22.40;89.00
74153;DHT22;62505;46.070;14.492;2022-10-16T02:43:25;22.40;89.00
74153;DHT22;62505;46.070;14.492;2022-10-16T02:45:52;22.40;89.00
74153;DHT22;62505;46.070;14.492;2022-10-16T02:48:20;22.40;89.00
74153;DHT22;62505;46.070;14.492;2022-10-16T02:50:47;22.40;88.90
74153;DHT22;62505;46.070;14.492;2022-10-16T02:53:14;22.40;89.00
74153;DHT22;62505;46.070;14.492;2022-10-16T02:55:41;22.40;88.90
74153;DHT22;62505;46.070;14.492;2022-10-16T02:58:08;22.40;89.00
74153;DHT22;62505;46.070;14.492;2022-10-16T03:00:35;22.40;88.90
74153;DHT22;62505;46.070;14.492;2022-10-16T03:03:02;22.40;88.90
74153;DHT22;62505;46.070;14.492;2022-10-16T03:05:30;22.40;88.90
74153;DHT22;62505;46.070;14.492;2022-10-16T03:07:57;22.40;88.90
74153;DHT22;62505;46.070;14.492;2022-10-16T03:10:25;22.40;88.90
74153;DHT22;62505;46.070;14.492;2022-10-16T03:12:52;22.40;88.90
74153;DHT22;62505;46.070;14.492;2022-10-16T03:15:19;22.40;88.90
74153;DHT22;62505;46.070;14.492;2022-10-16T03:17:46;22.40;88.90
74153;DHT22;62505;46.070;14.492;2022-10-16T03:20:13;22.40;88.90
74153;DHT22;62505;46.070;14.492;2022-10-16T03:22:41;22.40;88.90
74153;DHT22;62505;46.070;14.492;2022-10-16T03:25:08;22.40;88.90
74153;DHT22;62505;46.070;14.492;2022-10-16T03:27:35;22.40;88.90
74153;DHT22;62505;46.070;14.492;2022-10-16T03:30:02;22.40;88.90
74153;DHT22;62505;46.070;14.492;2022-10-16T03:32:29;22.40;88.90
74153;DHT22;62505;46.070;14.492;2022-10-16T03:34:56;22.40;88.90
74153;DHT22;62505;46.070;14.492;2022-10-16T03:37:23;22.40;88.90
74153;DHT22;62505;46.070;14.492;2022-10-16T03:39:52;22.30;88.80
74153;DHT22;62505;46.070;14.492;2022-10-16T03:42:19;22.40;88.90
74153;DHT22;62505;46.070;14.492;2022-10-16T03:44:46;22.40;88.90
74153;DHT22;62505;46.070;14.492;2022-10-16T03:47:13;22.30;88.80
74153;DHT22;62505;46.070;14.492;2022-10-16T03:49:39;22.30;88.80
74153;DHT22;62505;46.070;14.492;2022-10-16T03:52:06;22.30;88.80
74153;DHT22;62505;46.070;14.492;2022-10-16T03:54:33;22.30;88.80
74153;DHT22;62505;46.070;14.492;2022-10-16T03:57:01;22.40;88.80
74153;DHT22;62505;46.070;14.492;2022-10-16T03:59:28;22.30;88.80
74153;DHT22;62505;46.070;14.492;2022-10-16T04:01:55;22.30;88.80
74153;DHT22;62505;46.070;14.492;2022-10-16T04:04:22;22.30;88.80
74153;DHT22;62505;46.070;14.492;2022-10-16T04:06:50;22.30;88.80
74153;DHT22;62505;46.070;14.492;2022-10-16T04:09:17;22.30;88.80
74153;DHT22;62505;46.070;14.492;2022-10-16T04:11:44;22.30;88.80
74153;DHT22;62505;46.070;14.492;2022-10-16T04:14:12;22.30;88.80
74153;DHT22;62505;46.070;14.492;2022-10-16T04:16:39;22.30;88.80
74153;DHT22;62505;46.070;14.492;2022-10-16T04:19:06;22.30;88.80
74153;DHT22;62505;46.070;14.492;2022-10-16T04:21:33;22.30;88.70
74153;DHT22;62505;46.070;14.492;2022-10-16T04:24:00;22.40;88.80
74153;DHT22;62505;46.070;14.492;2022-10-16T04:26:27;22.30;88.70
74153;DHT22;62505;46.070;14.492;2022-10-16T04:28:54;22.30;88.70
74153;DHT22;62505;46.070;14.492;2022-10-16T04:31:22;22.30;88.70
74153;DHT22;62505;46.070;14.492;2022-10-16T04:33:49;22.30;88.70
74153;DHT22;62505;46.070;14.492;2022-10-16T04:36:16;22.30;88.70
74153;DHT22;62505;46.070;14.492;2022-10-16T04:38:43;22.30;88.70
74153;DHT22;62505;46.070;14.492;2022-10-16T04:41:10;22.30;88.70
74153;DHT22;62505;46.070;14.492;2022-10-16T04:43:36;22.40;88.80
74153;DHT22;62505;46.070;14.492;2022-10-16T04:46:04;22.30;88.70
74153;DHT22;62505;46.070;14.492;2022-10-16T04:48:32;22.30;89.50
74153;DHT22;62505;46.070;14.492;2022-10-16T04:51:00;22.30;88.70
74153;DHT22;62505;46.070;14.492;2022-10-16T04:53:27;22.30;88.70
74153;DHT22;62505;46.070;14.492;2022-10-16T04:55:54;22.30;88.70
74153;DHT22;62505;46.070;14.492;2022-10-16T04:58:21;22.30;88.70
74153;DHT22;62505;46.070;14.492;2022-10-16T05:00:48;22.30;88.70
74153;DHT22;62505;46.070;14.492;2022-10-16T05:03:15;22.30;88.70
74153;DHT22;62505;46.070;14.492;2022-10-16T05:05:44;22.30;88.70
74153;DHT22;62505;46.070;14.492;2022-10-16T05:08:12;22.30;88.70
74153;DHT22;62505;46.070;14.492;2022-10-16T05:10:41;22.30;88.70
74153;DHT22;62505;46.070;14.492;2022-10-16T05:13:08;22.30;88.70
74153;DHT22;62505;46.070;14.492;2022-10-16T05:15:35;22.30;88.70
74153;DHT22;62505;46.070;14.492;2022-10-16T05:18:02;22.30;88.70
74153;DHT22;62505;46.070;14.492;2022-10-16T05:20:29;22.30;88.70
74153;DHT22;62505;46.070;14.492;2022-10-16T05:22:57;22.30;88.70
74153;DHT22;62505;46.070;14.492;2022-10-16T05:25:24;22.30;88.70
74153;DHT22;62505;46.070;14.492;2022-10-16T05:27:51;22.30;88.70
74153;DHT22;62505;46.070;14.492;2022-10-16T05:30:18;22.30;88.70
74153;DHT22;62505;46.070;14.492;2022-10-16T05:32:46;22.30;88.70
74153;DHT22;62505;46.070;14.492;2022-10-16T05:35:14;22.30;88.70
74153;DHT22;62505;46.070;14.492;2022-10-16T05:37:42;22.30;88.70
74153;DHT22;62505;46.070;14.492;2022-10-16T05:40:11;22.30;88.80
74153;DHT22;62505;46.070;14.492;2022-10-16T05:42:38;22.30;88.70
74153;DHT22;62505;46.070;14.492;2022-10-16T05:45:06;22.30;88.70
74153;DHT22;62505;46.070;14.492;2022-10-16T05:47:35;22.30;88.70
74153;DHT22;62505;46.070;14.492;2022-10-16T05:50:02;22.30;88.70
74153;DHT22;62505;46.070;14.492;2022-10-16T05:52:29;22.30;89.70
74153;DHT22;62505;46.070;14.492;2022-10-16T05:54:56;22.30;89.60
74153;DHT22;62505;46.070;14.492;2022-10-16T05:57:24;22.30;89.80
74153;DHT22;62505;46.070;14.492;2022-10-16T05:59:51;22.30;90.10
74153;DHT22;62505;46.070;14.492;2022-10-16T06:02:18;22.30;89.50
74153;DHT22;62505;46.070;14.492;2022-10-16T06:05:14;22.30;89.80
74153;DHT22;62505;46.070;14.492;2022-10-16T06:07:41;22.30;90.30
74153;DHT22;62505;46.070;14.492;2022-10-16T06:10:08;22.40;90.00
74153;DHT22;62505;46.070;14.492;2022-10-16T06:12:37;22.30;89.90
74153;DHT22;62505;46.070;14.492;2022-10-16T06:15:04;22.30;89.40
74153;DHT22;62505;46.070;14.492;2022-10-16T06:17:31;22.30;89.30
74153;DHT22;62505;46.070;14.492;2022-10-16T06:19:58;22.30;89.40
74153;DHT22;62505;46.070;14.492;2022-10-16T06:22:25;22.30;89.20
74153;DHT22;62505;46.070;14.492;2022-10-16T06:24:52;22.30;89.90
74153;DHT22;62505;46.070;14.492;2022-10-16T06:27:19;22.40;89.50
74153;DHT22;62505;46.070;14.492;2022-10-16T06:29:47;22.40;89.50
74153;DHT22;62505;46.070;14.492;2022-10-16T06:32:14;22.40;89.60
74153;DHT22;62505;46.070;14.492;2022-10-16T06:34:41;22.40;89.60
74153;DHT22;62505;46.070;14.492;2022-10-16T06:37:08;22.40;89.40
74153;DHT22;62505;46.070;14.492;2022-10-16T06:39:34;22.40;89.50
74153;DHT22;62505;46.070;14.492;2022-10-16T06:42:01;22.40;89.50
74153;DHT22;62505;46.070;14.492;2022-10-16T06:44:28;22.40;89.50
74153;DHT22;62505;46.070;14.492;2022-10-16T06:46:57;22.40;90.20
74153;DHT22;62505;46.070;14.492;2022-10-16T06:49:23;22.50;90.20
74153;DHT22;62505;46.070;14.492;2022-10-16T06:51:50;22.40;90.40
74153;DHT22;62505;46.070;14.492;2022-10-16T06:54:17;22.40;90.70
74153;DHT22;62505;46.070;14.492;2022-10-16T06:56:44;22.40;90.30
74153;DHT22;62505;46.070;14.492;2022-10-16T06:59:11;22.40;90.30
74153;DHT22;62505;46.070;14.492;2022-10-16T07:01:38;22.40;90.10
74153;DHT22;62505;46.070;14.492;2022-10-16T07:04:06;22.40;90.70
74153;DHT22;62505;46.070;14.492;2022-10-16T07:06:34;22.40;90.80
74153;DHT22;62505;46.070;14.492;2022-10-16T07:09:03;22.40;90.30
74153;DHT22;62505;46.070;14.492;2022-10-16T07:11:31;22.40;90.20
74153;DHT22;62505;46.070;14.492;2022-10-16T07:13:58;22.40;90.20
74153;DHT22;62505;46.070;14.492;2022-10-16T07:16:26;22.40;90.10
74153;DHT22;62505;46.070;14.492;2022-10-16T07:18:54;22.40;90.00
74153;DHT22;62505;46.070;14.492;2022-10-16T07:21:26;22.40;90.00
74153;DHT22;62505;46.070;14.492;2022-10-16T07:23:55;22.40;90.00
74153;DHT22;62505;46.070;14.492;2022-10-16T07:26:23;22.40;90.00
74153;DHT22;62505;46.070;14.492;2022-10-16T07:28:50;22.40;90.00
74153;DHT22;62505;46.070;14.492;2022-10-16T07:31:18;22.40;90.00
74153;DHT22;62505;46.070;14.492;2022-10-16T07:33:46;22.40;90.00
74153;DHT22;62505;46.070;14.492;2022-10-16T07:36:14;22.40;90.40
74153;DHT22;62505;46.070;14.492;2022-10-16T07:38:42;22.40;90.00
74153;DHT22;62505;46.070;14.492;2022-10-16T07:41:11;22.40;90.00
74153;DHT22;62505;46.070;14.492;2022-10-16T07:43:39;22.40;90.00
74153;DHT22;62505;46.070;14.492;2022-10-16T07:46:06;22.40;90.00
74153;DHT22;62505;46.070;14.492;2022-10-16T07:48:34;22.40;90.00
74153;DHT22;62505;46.070;14.492;2022-10-16T07:51:03;22.40;90.00
74153;DHT22;62505;46.070;14.492;2022-10-16T07:53:30;22.50;90.00
74153;DHT22;62505;46.070;14.492;2022-10-16T07:55:59;22.40;89.90
74153;DHT22;62505;46.070;14.492;2022-10-16T07:58:26;22.40;90.00
74153;DHT22;62505;46.070;14.492;2022-10-16T08:00:53;22.40;90.00
74153;DHT22;62505;46.070;14.492;2022-10-16T08:03:20;22.40;91.10
74153;DHT22;62505;46.070;14.492;2022-10-16T08:05:47;22.50;90.60
74153;DHT22;62505;46.070;14.492;2022-10-16T08:08:16;22.50;90.90
74153;DHT22;62505;46.070;14.492;2022-10-16T08:10:43;22.50;91.00
74153;DHT22;62505;46.070;14.492;2022-10-16T08:13:11;22.50;91.90
74153;DHT22;62505;46.070;14.492;2022-10-16T08:15:40;22.50;91.50
74153;DHT22;62505;46.070;14.492;2022-10-16T08:18:07;22.60;91.40
74153;DHT22;62505;46.070;14.492;2022-10-16T08:20:34;22.50;89.60
74153;DHT22;62505;46.070;14.492;2022-10-16T08:23:01;22.40;89.20
74153;DHT22;62505;46.070;14.492;2022-10-16T08:25:28;22.40;88.80
74153;DHT22;62505;46.070;14.492;2022-10-16T08:27:55;22.50;88.60
74153;DHT22;62505;46.070;14.492;2022-10-16T08:30:24;22.50;90.00
74153;DHT22;62505;46.070;14.492;2022-10-16T08:32:52;22.40;82.90
74153;DHT22;62505;46.070;14.492;2022-10-16T08:35:19;22.20;83.50
74153;DHT22;62505;46.070;14.492;2022-10-16T08:37:46;22.20;80.20
74153;DHT22;62505;46.070;14.492;2022-10-16T08:40:18;22.20;81.00
74153;DHT22;62505;46.070;14.492;2022-10-16T08:43:14;22.20;81.00
74153;DHT22;62505;46.070;14.492;2022-10-16T08:48:38;22.20;81.70
74153;DHT22;62505;46.070;14.492;2022-10-16T08:51:13;22.20;86.10
74153;DHT22;62505;46.070;14.492;2022-10-16T08:53:46;22.30;85.30
74153;DHT22;62505;46.070;14.492;2022-10-16T08:56:17;22.30;85.00
74153;DHT22;62505;46.070;14.492;2022-10-16T08:58:45;22.30;84.90
74153;DHT22;62505;46.070;14.492;2022-10-16T09:01:15;22.30;84.50
74153;DHT22;62505;46.070;14.492;2022-10-16T09:03:54;22.30;85.30
74153;DHT22;62505;46.070;14.492;2022-10-16T09:06:29;22.30;86.00
74153;DHT22;62505;46.070;14.492;2022-10-16T09:09:09;22.30;85.90
74153;DHT22;62505;46.070;14.492;2022-10-16T09:11:48;22.30;87.90
74153;DHT22;62505;46.070;14.492;2022-10-16T09:14:35;22.40;87.30
74153;DHT22;62505;46.070;14.492;2022-10-16T09:17:15;22.40;87.20
74153;DHT22;62505;46.070;14.492;2022-10-16T09:19:48;22.40;86.50
74153;DHT22;62505;46.070;14.492;2022-10-16T09:22:18;22.30;86.50
74153;DHT22;62505;46.070;14.492;2022-10-16T09:24:49;22.40;86.30
74153;DHT22;62505;46.070;14.492;2022-10-16T09:27:16;22.30;86.40
74153;DHT22;62505;46.070;14.492;2022-10-16T09:29:42;22.30;86.50
74153;DHT22;62505;46.070;14.492;2022-10-16T09:32:12;22.30;86.40
74153;DHT22;62505;46.070;14.492;2022-10-16T09:34:43;22.30;86.60
74153;DHT22;62505;46.070;14.492;2022-10-16T09:37:13;22.40;88.60
74153;DHT22;62505;46.070;14.492;2022-10-16T09:39:48;22.40;89.80
74153;DHT22;62505;46.070;14.492;2022-10-16T09:42:17;22.50;90.10
74153;DHT22;62505;46.070;14.492;2022-10-16T09:44:48;22.50;90.00
74153;DHT22;62505;46.070;14.492;2022-10-16T09:47:19;22.50;89.90
74153;DHT22;62505;46.070;14.492;2022-10-16T09:49:52;22.60;90.60
74153;DHT22;62505;46.070;14.492;2022-10-16T09:52:19;22.60;90.80
74153;DHT22;62505;46.070;14.492;2022-10-16T09:54:51;22.60;90.50
74153;DHT22;62505;46.070;14.492;2022-10-16T09:57:18;22.60;90.80
74153;DHT22;62505;46.070;14.492;2022-10-16T09:59:47;22.60;90.80
74153;DHT22;62505;46.070;14.492;2022-10-16T10:02:17;22.60;90.90
74153;DHT22;62505;46.070;14.492;2022-10-16T10:04:50;22.60;90.90
74153;DHT22;62505;46.070;14.492;2022-10-16T10:07:23;22.60;91.10
74153;DHT22;62505;46.070;14.492;2022-10-16T10:09:51;22.60;91.00
74153;DHT22;62505;46.070;14.492;2022-10-16T10:12:21;22.60;91.00
74153;DHT22;62505;46.070;14.492;2022-10-16T10:14:49;22.60;91.30
74153;DHT22;62505;46.070;14.492;2022-10-16T10:17:19;22.70;91.70
74153;DHT22;62505;46.070;14.492;2022-10-16T10:19:52;22.70;92.00
74153;DHT22;62505;46.070;14.492;2022-10-16T10:22:23;22.70;92.20
74153;DHT22;62505;46.070;14.492;2022-10-16T10:25:10;22.80;92.00
74153;DHT22;62505;46.070;14.492;2022-10-16T10:27:45;22.80;91.70
74153;DHT22;62505;46.070;14.492;2022-10-16T10:30:19;22.70;91.10
74153;DHT22;62505;46.070;14.492;2022-10-16T10:32:55;22.70;83.40
74153;DHT22;62505;46.070;14.492;2022-10-16T10:35:31;22.50;78.50
74153;DHT22;62505;46.070;14.492;2022-10-16T10:38:10;22.40;75.30
74153;DHT22;62505;46.070;14.492;2022-10-16T10:40:50;22.30;73.20
74153;DHT22;62505;46.070;14.492;2022-10-16T10:43:27;22.30;72.10
74153;DHT22;62505;46.070;14.492;2022-10-16T10:46:00;22.20;70.60
74153;DHT22;62505;46.070;14.492;2022-10-16T10:48:48;22.20;68.90
74153;DHT22;62505;46.070;14.492;2022-10-16T10:51:22;22.20;68.70
74153;DHT22;62505;46.070;14.492;2022-10-16T10:53:57;22.10;68.50
74153;DHT22;62505;46.070;14.492;2022-10-16T10:56:44;22.10;68.50
74153;DHT22;62505;46.070;14.492;2022-10-16T10:59:32;22.10;71.10
74153;DHT22;62505;46.070;14.492;2022-10-16T11:02:05;22.10;72.20
74153;DHT22;62505;46.070;14.492;2022-10-16T11:04:56;22.20;75.00
74153;DHT22;62505;46.070;14.492;2022-10-16T11:07:28;22.20;75.90
74153;DHT22;62505;46.070;14.492;2022-10-16T11:09:59;22.30;76.00
74153;DHT22;62505;46.070;14.492;2022-10-16T11:12:31;22.30;76.60
74153;DHT22;62505;46.070;14.492;2022-10-16T11:15:07;22.40;80.20
74153;DHT22;62505;46.070;14.492;2022-10-16T11:17:39;22.40;80.90
74153;DHT22;62505;46.070;14.492;2022-10-16T11:20:16;22.40;81.20
74153;DHT22;62505;46.070;14.492;2022-10-16T11:22:48;22.40;81.90
74153;DHT22;62505;46.070;14.492;2022-10-16T11:25:21;22.40;84.60
74153;DHT22;62505;46.070;14.492;2022-10-16T11:27:51;22.40;85.30
74153;DHT22;62505;46.070;14.492;2022-10-16T11:30:23;22.40;85.40
74153;DHT22;62505;46.070;14.492;2022-10-16T11:33:02;22.40;86.80
74153;DHT22;62505;46.070;14.492;2022-10-16T11:35:39;22.50;88.20
74153;DHT22;62505;46.070;14.492;2022-10-16T11:38:12;22.50;88.90
74153;DHT22;62505;46.070;14.492;2022-10-16T11:40:41;22.50;88.50
74153;DHT22;62505;46.070;14.492;2022-10-16T11:43:14;22.50;89.50
74153;DHT22;62505;46.070;14.492;2022-10-16T11:45:44;22.60;90.50
74153;DHT22;62505;46.070;14.492;2022-10-16T11:48:20;22.50;90.10
74153;DHT22;62505;46.070;14.492;2022-10-16T11:50:53;22.50;91.00
74153;DHT22;62505;46.070;14.492;2022-10-16T11:53:32;22.60;90.80
74153;DHT22;62505;46.070;14.492;2022-10-16T11:56:01;22.60;90.30
74153;DHT22;62505;46.070;14.492;2022-10-16T11:58:30;22.60;91.60
74153;DHT22;62505;46.070;14.492;2022-10-16T12:01:10;22.60;92.20
74153;DHT22;62505;46.070;14.492;2022-10-16T12:03:46;22.60;91.50
74153;DHT22;62505;46.070;14.492;2022-10-16T12:06:25;22.60;92.00
74153;DHT22;62505;46.070;14.492;2022-10-16T12:08:58;22.60;91.70
74153;DHT22;62505;46.070;14.492;2022-10-16T12:11:35;22.60;91.80
74153;DHT22;62505;46.070;14.492;2022-10-16T12:14:22;22.60;91.50
74153;DHT22;62505;46.070;14.492;2022-10-16T12:17:00;22.60;90.60
74153;DHT22;62505;46.070;14.492;2022-10-16T12:19:29;22.60;90.30
74153;DHT22;62505;46.070;14.492;2022-10-16T12:22:00;22.50;90.40
74153;DHT22;62505;46.070;14.492;2022-10-16T12:24:34;22.50;90.30
74153;DHT22;62505;46.070;14.492;2022-10-16T12:27:02;22.50;90.30
74153;DHT22;62505;46.070;14.492;2022-10-16T12:29:35;22.50;90.40
74153;DHT22;62505;46.070;14.492;2022-10-16T12:32:05;22.60;90.30
74153;DHT22;62505;46.070;14.492;2022-10-16T12:34:38;22.50;90.10
74153;DHT22;62505;46.070;14.492;2022-10-16T12:37:14;22.50;90.20
74153;DHT22;62505;46.070;14.492;2022-10-16T12:39:41;22.50;90.50
74153;DHT22;62505;46.070;14.492;2022-10-16T12:42:32;22.50;90.10
74153;DHT22;62505;46.070;14.492;2022-10-16T12:45:01;22.50;90.00
74153;DHT22;62505;46.070;14.492;2022-10-16T12:47:46;22.50;90.00
74153;DHT22;62505;46.070;14.492;2022-10-16T12:50:28;22.50;90.00
74153;DHT22;62505;46.070;14.492;2022-10-16T12:52:59;22.50;90.00
74153;DHT22;62505;46.070;14.492;2022-10-16T12:55:27;22.50;89.90
74153;DHT22;62505;46.070;14.492;2022-10-16T12:58:24;22.40;89.80
74153;DHT22;62505;46.070;14.492;2022-10-16T13:00:57;22.50;89.70
74153;DHT22;62505;46.070;14.492;2022-10-16T13:03:53;22.40;89.50
74153;DHT22;62505;46.070;14.492;2022-10-16T13:06:33;22.50;89.50
74153;DHT22;62505;46.070;14.492;2022-10-16T13:09:19;22.50;89.40
74153;DHT22;62505;46.070;14.492;2022-10-16T13:12:11;22.50;89.40
74153;DHT22;62505;46.070;14.492;2022-10-16T13:15:19;22.50;89.30
74153;DHT22;62505;46.070;14.492;2022-10-16T13:17:56;22.50;89.20
74153;DHT22;62505;46.070;14.492;2022-10-16T13:20:30;22.40;89.10
74153;DHT22;62505;46.070;14.492;2022-10-16T13:23:04;22.50;88.90
74153;DHT22;62505;46.070;14.492;2022-10-16T13:25:48;22.50;89.00
74153;DHT22;62505;46.070;14.492;2022-10-16T13:28:22;22.40;89.00
74153;DHT22;62505;46.070;14.492;2022-10-16T13:30:55;22.50;88.90
74153;DHT22;62505;46.070;14.492;2022-10-16T13:33:30;22.40;88.80
74153;DHT22;62505;46.070;14.492;2022-10-16T13:35:57;22.40;88.70
74153;DHT22;62505;46.070;14.492;2022-10-16T13:38:25;22.40;88.60
74153;DHT22;62505;46.070;14.492;2022-10-16T13:40:56;22.40;88.70
74153;DHT22;62505;46.070;14.492;2022-10-16T13:43:27;22.50;88.70
74153;DHT22;62505;46.070;14.492;2022-10-16T13:45:57;22.40;88.80
74153;DHT22;62505;46.070;14.492;2022-10-16T13:48:25;22.40;88.70
74153;DHT22;62505;46.070;14.492;2022-10-16T13:51:06;22.40;88.50
74153;DHT22;62505;46.070;14.492;2022-10-16T13:53:34;22.40;88.60
74153;DHT22;62505;46.070;14.492;2022-10-16T13:56:05;22.40;88.60
74153;DHT22;62505;46.070;14.492;2022-10-16T13:58:33;22.40;88.60
74153;DHT22;62505;46.070;14.492;2022-10-16T14:01:01;22.40;88.70
74153;DHT22;62505;46.070;14.492;2022-10-16T14:03:30;22.40;88.50
74153;DHT22;62505;46.070;14.492;2022-10-16T14:05:59;22.40;88.50
74153;DHT22;62505;46.070;14.492;2022-10-16T14:08:27;22.40;88.60
74153;DHT22;62505;46.070;14.492;2022-10-16T14:10:57;22.40;88.50
74153;DHT22;62505;46.070;14.492;2022-10-16T14:13:31;22.40;88.60
74153;DHT22;62505;46.070;14.492;2022-10-16T14:16:02;22.40;88.50
74153;DHT22;62505;46.070;14.492;2022-10-16T14:18:29;22.40;88.50
74153;DHT22;62505;46.070;14.492;2022-10-16T14:21:03;22.40;88.40
74153;DHT22;62505;46.070;14.492;2022-10-16T14:23:32;22.40;88.50
74153;DHT22;62505;46.070;14.492;2022-10-16T14:26:12;22.40;88.50
74153;DHT22;62505;46.070;14.492;2022-10-16T14:28:43;22.40;88.40
74153;DHT22;62505;46.070;14.492;2022-10-16T14:31:28;22.40;88.50
74153;DHT22;62505;46.070;14.492;2022-10-16T14:33:56;22.40;88.40
74153;DHT22;62505;46.070;14.492;2022-10-16T14:36:23;22.40;88.40
74153;DHT22;62505;46.070;14.492;2022-10-16T14:38:59;22.40;88.50
74153;DHT22;62505;46.070;14.492;2022-10-16T14:41:28;22.40;88.50
74153;DHT22;62505;46.070;14.492;2022-10-16T14:44:00;22.40;88.40
74153;DHT22;62505;46.070;14.492;2022-10-16T14:46:33;22.40;88.50
74153;DHT22;62505;46.070;14.492;2022-10-16T14:49:04;22.40;88.50
74153;DHT22;62505;46.070;14.492;2022-10-16T14:51:40;22.40;88.50
74153;DHT22;62505;46.070;14.492;2022-10-16T14:54:08;22.40;88.50
74153;DHT22;62505;46.070;14.492;2022-10-16T14:56:43;22.40;88.50
74153;DHT22;62505;46.070;14.492;2022-10-16T14:59:16;22.40;88.40
74153;DHT22;62505;46.070;14.492;2022-10-16T15:01:44;22.40;88.40
74153;DHT22;62505;46.070;14.492;2022-10-16T15:04:12;22.40;88.40
74153;DHT22;62505;46.070;14.492;2022-10-16T15:06:39;22.40;88.50
74153;DHT22;62505;46.070;14.492;2022-10-16T15:09:06;22.40;88.30
74153;DHT22;62505;46.070;14.492;2022-10-16T15:11:33;22.40;88.40
74153;DHT22;62505;46.070;14.492;2022-10-16T15:14:01;22.40;88.40
74153;DHT22;62505;46.070;14.492;2022-10-16T15:16:30;22.40;88.50
74153;DHT22;62505;46.070;14.492;2022-10-16T15:18:58;22.40;88.40
74153;DHT22;62505;46.070;14.492;2022-10-16T15:21:26;22.40;88.40
74153;DHT22;62505;46.070;14.492;2022-10-16T15:23:53;22.40;88.40
74153;DHT22;62505;46.070;14.492;2022-10-16T15:26:22;22.40;88.20
74153;DHT22;62505;46.070;14.492;2022-10-16T15:28:49;22.40;88.40
74153;DHT22;62505;46.070;14.492;2022-10-16T15:31:16;22.40;88.50
74153;DHT22;62505;46.070;14.492;2022-10-16T15:33:44;22.40;88.40
74153;DHT22;62505;46.070;14.492;2022-10-16T15:36:24;22.40;88.40
74153;DHT22;62505;46.070;14.492;2022-10-16T15:38:51;22.40;88.40